sensor_id;sensor_type;location;lat;lon;timestamp;pressure;altitude;pressure_sealevel;temperature
8227;BMP180;4154;48.810;9.012;2022-08-19T00:01:35;96739.00;;;20.90
8227;BMP180;4154;48.810;9.012;2022-08-19T00:04:06;96732.00;;;20.80
8227;BMP180;4154;48.810;9.012;2022-08-19T00:06:33;96734.00;;;20.70
8227;BMP180;4154;48.810;9.012;2022-08-19T00:09:01;96736.00;;;20.80
8227;BMP180;4154;48.810;9.012;2022-08-19T00:11:28;96731.00;;;20.80
8227;BMP180;4154;48.810;9.012;2022-08-19T00:13:55;96732.00;;;20.80
8227;BMP180;4154;48.810;9.012;2022-08-19T00:16:23;96735.00;;;20.80
8227;BMP180;4154;48.810;9.012;2022-08-19T00:18:49;96731.00;;;20.80
8227;BMP180;4154;48.810;9.012;2022-08-19T00:21:16;96740.00;;;20.80
8227;BMP180;4154;48.810;9.012;2022-08-19T00:23:42;96743.00;;;20.80
8227;BMP180;4154;48.810;9.012;2022-08-19T00:26:10;96740.00;;;20.80
8227;BMP180;4154;48.810;9.012;2022-08-19T00:28:37;96744.00;;;20.80
8227;BMP180;4154;48.810;9.012;2022-08-19T00:31:08;96733.00;;;20.80
8227;BMP180;4154;48.810;9.012;2022-08-19T00:33:34;96731.00;;;20.70
8227;BMP180;4154;48.810;9.012;2022-08-19T00:36:06;96722.00;;;20.70
8227;BMP180;4154;48.810;9.012;2022-08-19T00:38:34;96722.00;;;20.70
8227;BMP180;4154;48.810;9.012;2022-08-19T00:41:01;96714.00;;;20.70
8227;BMP180;4154;48.810;9.012;2022-08-19T00:43:28;96703.00;;;20.70
8227;BMP180;4154;48.810;9.012;2022-08-19T00:45:56;96699.00;;;20.70
8227;BMP180;4154;48.810;9.012;2022-08-19T00:48:23;96693.00;;;20.70
8227;BMP180;4154;48.810;9.012;2022-08-19T00:50:52;96700.00;;;20.70
8227;BMP180;4154;48.810;9.012;2022-08-19T00:53:23;96701.00;;;20.70
8227;BMP180;4154;48.810;9.012;2022-08-19T00:55:56;96702.00;;;20.70
8227;BMP180;4154;48.810;9.012;2022-08-19T00:58:29;96711.00;;;20.70
8227;BMP180;4154;48.810;9.012;2022-08-19T01:00:55;96714.00;;;20.70
8227;BMP180;4154;48.810;9.012;2022-08-19T01:03:23;96723.00;;;20.70
8227;BMP180;4154;48.810;9.012;2022-08-19T01:05:51;96726.00;;;20.70
8227;BMP180;4154;48.810;9.012;2022-08-19T01:08:19;96722.00;;;20.70
8227;BMP180;4154;48.810;9.012;2022-08-19T01:10:56;96719.00;;;20.70
8227;BMP180;4154;48.810;9.012;2022-08-19T01:13:27;96715.00;;;20.70
8227;BMP180;4154;48.810;9.012;2022-08-19T01:16:07;96719.00;;;20.60
8227;BMP180;4154;48.810;9.012;2022-08-19T01:18:40;96721.00;;;20.60
8227;BMP180;4154;48.810;9.012;2022-08-19T01:21:16;96719.00;;;20.70
8227;BMP180;4154;48.810;9.012;2022-08-19T01:23:44;96706.00;;;20.70
8227;BMP180;4154;48.810;9.012;2022-08-19T01:26:23;96707.00;;;20.60
8227;BMP180;4154;48.810;9.012;2022-08-19T01:28:54;96706.00;;;20.60
8227;BMP180;4154;48.810;9.012;2022-08-19T01:31:25;96708.00;;;20.60
8227;BMP180;4154;48.810;9.012;2022-08-19T01:33:54;96699.00;;;20.50
8227;BMP180;4154;48.810;9.012;2022-08-19T01:36:39;96694.00;;;20.50
8227;BMP180;4154;48.810;9.012;2022-08-19T01:39:12;96689.00;;;20.50
8227;BMP180;4154;48.810;9.012;2022-08-19T01:41:38;96693.00;;;20.50
8227;BMP180;4154;48.810;9.012;2022-08-19T01:44:07;96700.00;;;20.50
8227;BMP180;4154;48.810;9.012;2022-08-19T01:46:34;96704.00;;;20.50
8227;BMP180;4154;48.810;9.012;2022-08-19T01:49:01;96708.00;;;20.50
8227;BMP180;4154;48.810;9.012;2022-08-19T01:51:28;96709.00;;;20.50
8227;BMP180;4154;48.810;9.012;2022-08-19T01:53:56;96700.00;;;20.50
8227;BMP180;4154;48.810;9.012;2022-08-19T01:56:24;96703.00;;;20.40
8227;BMP180;4154;48.810;9.012;2022-08-19T01:59:01;96697.00;;;20.40
8227;BMP180;4154;48.810;9.012;2022-08-19T02:01:28;96703.00;;;20.40
8227;BMP180;4154;48.810;9.012;2022-08-19T02:03:58;96696.00;;;20.40
8227;BMP180;4154;48.810;9.012;2022-08-19T02:06:24;96702.00;;;20.40
8227;BMP180;4154;48.810;9.012;2022-08-19T02:08:50;96717.00;;;20.30
8227;BMP180;4154;48.810;9.012;2022-08-19T02:11:24;96711.00;;;20.30
8227;BMP180;4154;48.810;9.012;2022-08-19T02:13:53;96725.00;;;20.30
8227;BMP180;4154;48.810;9.012;2022-08-19T02:16:20;96715.00;;;20.30
8227;BMP180;4154;48.810;9.012;2022-08-19T02:18:46;96711.00;;;20.30
8227;BMP180;4154;48.810;9.012;2022-08-19T02:21:19;96708.00;;;20.30
8227;BMP180;4154;48.810;9.012;2022-08-19T02:23:46;96698.00;;;20.20
8227;BMP180;4154;48.810;9.012;2022-08-19T02:26:12;96703.00;;;20.30
8227;BMP180;4154;48.810;9.012;2022-08-19T02:28:40;96699.00;;;20.20
8227;BMP180;4154;48.810;9.012;2022-08-19T02:31:13;96689.00;;;20.20
8227;BMP180;4154;48.810;9.012;2022-08-19T02:33:41;96698.00;;;20.20
8227;BMP180;4154;48.810;9.012;2022-08-19T02:36:09;96704.00;;;20.20
8227;BMP180;4154;48.810;9.012;2022-08-19T02:38:36;96694.00;;;20.20
8227;BMP180;4154;48.810;9.012;2022-08-19T02:41:08;96701.00;;;20.20
8227;BMP180;4154;48.810;9.012;2022-08-19T02:43:37;96699.00;;;20.20
8227;BMP180;4154;48.810;9.012;2022-08-19T02:46:19;96687.00;;;20.20
8227;BMP180;4154;48.810;9.012;2022-08-19T02:48:52;96684.00;;;20.20
8227;BMP180;4154;48.810;9.012;2022-08-19T02:51:25;96697.00;;;20.20
8227;BMP180;4154;48.810;9.012;2022-08-19T02:53:52;96691.00;;;20.20
8227;BMP180;4154;48.810;9.012;2022-08-19T02:56:21;96704.00;;;20.10
8227;BMP180;4154;48.810;9.012;2022-08-19T02:58:47;96699.00;;;20.10
8227;BMP180;4154;48.810;9.012;2022-08-19T03:01:32;96693.00;;;20.10
8227;BMP180;4154;48.810;9.012;2022-08-19T03:04:02;96700.00;;;20.10
8227;BMP180;4154;48.810;9.012;2022-08-19T03:06:29;96695.00;;;20.10
8227;BMP180;4154;48.810;9.012;2022-08-19T03:08:56;96700.00;;;20.10
8227;BMP180;4154;48.810;9.012;2022-08-19T03:11:29;96700.00;;;20.10
8227;BMP180;4154;48.810;9.012;2022-08-19T03:13:55;96699.00;;;20.10
8227;BMP180;4154;48.810;9.012;2022-08-19T03:16:24;96696.00;;;20.10
8227;BMP180;4154;48.810;9.012;2022-08-19T03:18:51;96697.00;;;20.10
8227;BMP180;4154;48.810;9.012;2022-08-19T03:21:22;96696.00;;;20.10
8227;BMP180;4154;48.810;9.012;2022-08-19T03:23:50;96699.00;;;20.10
8227;BMP180;4154;48.810;9.012;2022-08-19T03:26:16;96697.00;;;20.10
8227;BMP180;4154;48.810;9.012;2022-08-19T03:28:44;96711.00;;;20.10
8227;BMP180;4154;48.810;9.012;2022-08-19T03:31:13;96703.00;;;20.10
8227;BMP180;4154;48.810;9.012;2022-08-19T03:33:40;96705.00;;;20.10
8227;BMP180;4154;48.810;9.012;2022-08-19T03:36:17;96709.00;;;20.00
8227;BMP180;4154;48.810;9.012;2022-08-19T03:38:47;96701.00;;;20.00
8227;BMP180;4154;48.810;9.012;2022-08-19T03:41:31;96700.00;;;20.00
8227;BMP180;4154;48.810;9.012;2022-08-19T03:43:57;96700.00;;;20.00
8227;BMP180;4154;48.810;9.012;2022-08-19T03:46:32;96693.00;;;20.00
8227;BMP180;4154;48.810;9.012;2022-08-19T03:49:01;96693.00;;;19.90
8227;BMP180;4154;48.810;9.012;2022-08-19T03:51:37;96694.00;;;19.90
8227;BMP180;4154;48.810;9.012;2022-08-19T03:54:07;96701.00;;;19.90
8227;BMP180;4154;48.810;9.012;2022-08-19T03:56:39;96703.00;;;19.90
8227;BMP180;4154;48.810;9.012;2022-08-19T03:59:10;96709.00;;;19.90
8227;BMP180;4154;48.810;9.012;2022-08-19T04:01:37;96710.00;;;19.90
8227;BMP180;4154;48.810;9.012;2022-08-19T04:04:03;96715.00;;;19.90
8227;BMP180;4154;48.810;9.012;2022-08-19T04:06:34;96716.00;;;19.90
8227;BMP180;4154;48.810;9.012;2022-08-19T04:09:04;96733.00;;;19.70
8227;BMP180;4154;48.810;9.012;2022-08-19T04:11:37;96728.00;;;19.80
8227;BMP180;4154;48.810;9.012;2022-08-19T04:14:12;96727.00;;;19.80
8227;BMP180;4154;48.810;9.012;2022-08-19T04:16:39;96725.00;;;19.80
8227;BMP180;4154;48.810;9.012;2022-08-19T04:19:05;96721.00;;;19.80
8227;BMP180;4154;48.810;9.012;2022-08-19T04:21:33;96721.00;;;19.80
8227;BMP180;4154;48.810;9.012;2022-08-19T04:23:59;96724.00;;;19.80
8227;BMP180;4154;48.810;9.012;2022-08-19T04:26:31;96714.00;;;19.90
8227;BMP180;4154;48.810;9.012;2022-08-19T04:28:59;96711.00;;;19.80
8227;BMP180;4154;48.810;9.012;2022-08-19T04:31:29;96715.00;;;19.80
8227;BMP180;4154;48.810;9.012;2022-08-19T04:33:57;96714.00;;;19.80
8227;BMP180;4154;48.810;9.012;2022-08-19T04:36:30;96714.00;;;19.80
8227;BMP180;4154;48.810;9.012;2022-08-19T04:39:00;96712.00;;;19.80
8227;BMP180;4154;48.810;9.012;2022-08-19T04:41:27;96710.00;;;19.80
8227;BMP180;4154;48.810;9.012;2022-08-19T04:44:12;96712.00;;;19.80
8227;BMP180;4154;48.810;9.012;2022-08-19T04:46:39;96719.00;;;19.80
8227;BMP180;4154;48.810;9.012;2022-08-19T04:49:06;96713.00;;;19.80
8227;BMP180;4154;48.810;9.012;2022-08-19T04:51:34;96715.00;;;19.80
8227;BMP180;4154;48.810;9.012;2022-08-19T04:54:01;96717.00;;;19.80
8227;BMP180;4154;48.810;9.012;2022-08-19T04:56:28;96727.00;;;19.80
8227;BMP180;4154;48.810;9.012;2022-08-19T04:58:56;96726.00;;;19.80
8227;BMP180;4154;48.810;9.012;2022-08-19T05:01:27;96720.00;;;19.70
8227;BMP180;4154;48.810;9.012;2022-08-19T05:03:59;96734.00;;;19.80
8227;BMP180;4154;48.810;9.012;2022-08-19T05:06:26;96731.00;;;19.80
8227;BMP180;4154;48.810;9.012;2022-08-19T05:08:53;96752.00;;;19.80
8227;BMP180;4154;48.810;9.012;2022-08-19T05:11:24;96733.00;;;19.70
8227;BMP180;4154;48.810;9.012;2022-08-19T05:13:51;96746.00;;;19.80
8227;BMP180;4154;48.810;9.012;2022-08-19T05:16:21;96739.00;;;19.80
8227;BMP180;4154;48.810;9.012;2022-08-19T05:18:48;96734.00;;;19.70
8227;BMP180;4154;48.810;9.012;2022-08-19T05:21:34;96743.00;;;19.80
8227;BMP180;4154;48.810;9.012;2022-08-19T05:24:21;96753.00;;;19.80
8227;BMP180;4154;48.810;9.012;2022-08-19T05:26:50;96754.00;;;19.80
8227;BMP180;4154;48.810;9.012;2022-08-19T05:29:20;96761.00;;;19.80
8227;BMP180;4154;48.810;9.012;2022-08-19T05:31:48;96775.00;;;19.80
8227;BMP180;4154;48.810;9.012;2022-08-19T05:34:17;96785.00;;;19.80
8227;BMP180;4154;48.810;9.012;2022-08-19T05:36:45;96782.00;;;19.80
8227;BMP180;4154;48.810;9.012;2022-08-19T05:39:18;96797.00;;;19.80
8227;BMP180;4154;48.810;9.012;2022-08-19T05:41:54;96804.00;;;19.80
8227;BMP180;4154;48.810;9.012;2022-08-19T05:44:26;96811.00;;;19.80
8227;BMP180;4154;48.810;9.012;2022-08-19T05:46:53;96815.00;;;19.80
8227;BMP180;4154;48.810;9.012;2022-08-19T05:49:22;96806.00;;;19.80
8227;BMP180;4154;48.810;9.012;2022-08-19T05:51:49;96802.00;;;19.80
8227;BMP180;4154;48.810;9.012;2022-08-19T05:54:15;96803.00;;;19.80
8227;BMP180;4154;48.810;9.012;2022-08-19T05:56:42;96805.00;;;19.80
8227;BMP180;4154;48.810;9.012;2022-08-19T05:59:10;96809.00;;;19.70
8227;BMP180;4154;48.810;9.012;2022-08-19T06:01:44;96803.00;;;19.80
8227;BMP180;4154;48.810;9.012;2022-08-19T06:04:12;96804.00;;;19.80
8227;BMP180;4154;48.810;9.012;2022-08-19T06:06:41;96807.00;;;19.80
8227;BMP180;4154;48.810;9.012;2022-08-19T06:09:08;96804.00;;;19.80
8227;BMP180;4154;48.810;9.012;2022-08-19T06:11:43;96815.00;;;19.80
8227;BMP180;4154;48.810;9.012;2022-08-19T06:14:14;96805.00;;;19.80
8227;BMP180;4154;48.810;9.012;2022-08-19T06:16:41;96802.00;;;19.80
8227;BMP180;4154;48.810;9.012;2022-08-19T06:19:13;96801.00;;;19.80
8227;BMP180;4154;48.810;9.012;2022-08-19T06:21:42;96797.00;;;19.80
8227;BMP180;4154;48.810;9.012;2022-08-19T06:24:12;96801.00;;;19.80
8227;BMP180;4154;48.810;9.012;2022-08-19T06:26:41;96801.00;;;19.80
8227;BMP180;4154;48.810;9.012;2022-08-19T06:29:10;96793.00;;;19.70
8227;BMP180;4154;48.810;9.012;2022-08-19T06:31:36;96798.00;;;19.80
8227;BMP180;4154;48.810;9.012;2022-08-19T06:34:05;96791.00;;;19.70
8227;BMP180;4154;48.810;9.012;2022-08-19T06:36:40;96785.00;;;19.80
8227;BMP180;4154;48.810;9.012;2022-08-19T06:39:23;96791.00;;;19.80
8227;BMP180;4154;48.810;9.012;2022-08-19T06:41:53;96802.00;;;19.80
8227;BMP180;4154;48.810;9.012;2022-08-19T06:44:23;96801.00;;;19.80
8227;BMP180;4154;48.810;9.012;2022-08-19T06:46:49;96798.00;;;19.80
8227;BMP180;4154;48.810;9.012;2022-08-19T06:49:16;96797.00;;;19.80
8227;BMP180;4154;48.810;9.012;2022-08-19T06:51:43;96802.00;;;19.80
8227;BMP180;4154;48.810;9.012;2022-08-19T06:54:10;96800.00;;;19.80
8227;BMP180;4154;48.810;9.012;2022-08-19T06:56:36;96805.00;;;19.80
8227;BMP180;4154;48.810;9.012;2022-08-19T06:59:10;96800.00;;;19.90
8227;BMP180;4154;48.810;9.012;2022-08-19T07:01:41;96811.00;;;19.90
8227;BMP180;4154;48.810;9.012;2022-08-19T07:04:09;96799.00;;;19.90
8227;BMP180;4154;48.810;9.012;2022-08-19T07:06:36;96796.00;;;19.90
8227;BMP180;4154;48.810;9.012;2022-08-19T07:09:08;96809.00;;;19.90
8227;BMP180;4154;48.810;9.012;2022-08-19T07:11:34;96808.00;;;19.90
8227;BMP180;4154;48.810;9.012;2022-08-19T07:14:01;96815.00;;;19.80
8227;BMP180;4154;48.810;9.012;2022-08-19T07:16:28;96810.00;;;19.80
8227;BMP180;4154;48.810;9.012;2022-08-19T07:18:55;96817.00;;;19.80
8227;BMP180;4154;48.810;9.012;2022-08-19T07:21:27;96822.00;;;19.80
8227;BMP180;4154;48.810;9.012;2022-08-19T07:23:55;96819.00;;;19.80
8227;BMP180;4154;48.810;9.012;2022-08-19T07:26:28;96818.00;;;19.90
8227;BMP180;4154;48.810;9.012;2022-08-19T07:28:56;96822.00;;;19.90
8227;BMP180;4154;48.810;9.012;2022-08-19T07:31:26;96827.00;;;19.90
8227;BMP180;4154;48.810;9.012;2022-08-19T07:33:54;96818.00;;;19.90
8227;BMP180;4154;48.810;9.012;2022-08-19T07:36:27;96820.00;;;20.00
8227;BMP180;4154;48.810;9.012;2022-08-19T07:39:00;96830.00;;;20.00
8227;BMP180;4154;48.810;9.012;2022-08-19T07:41:29;96829.00;;;20.00
8227;BMP180;4154;48.810;9.012;2022-08-19T07:43:57;96830.00;;;20.00
8227;BMP180;4154;48.810;9.012;2022-08-19T07:46:23;96829.00;;;20.10
8227;BMP180;4154;48.810;9.012;2022-08-19T07:48:51;96819.00;;;20.10
8227;BMP180;4154;48.810;9.012;2022-08-19T07:51:21;96812.00;;;20.10
8227;BMP180;4154;48.810;9.012;2022-08-19T07:53:49;96828.00;;;20.20
8227;BMP180;4154;48.810;9.012;2022-08-19T07:56:20;96830.00;;;20.20
8227;BMP180;4154;48.810;9.012;2022-08-19T07:58:49;96834.00;;;20.10
8227;BMP180;4154;48.810;9.012;2022-08-19T08:01:20;96834.00;;;20.20
8227;BMP180;4154;48.810;9.012;2022-08-19T08:03:51;96829.00;;;20.20
8227;BMP180;4154;48.810;9.012;2022-08-19T08:06:36;96828.00;;;20.20
8227;BMP180;4154;48.810;9.012;2022-08-19T08:09:32;96830.00;;;20.20
8227;BMP180;4154;48.810;9.012;2022-08-19T08:12:08;96830.00;;;20.10
8227;BMP180;4154;48.810;9.012;2022-08-19T08:14:46;96831.00;;;20.10
8227;BMP180;4154;48.810;9.012;2022-08-19T08:17:15;96834.00;;;20.10
8227;BMP180;4154;48.810;9.012;2022-08-19T08:19:43;96835.00;;;20.10
8227;BMP180;4154;48.810;9.012;2022-08-19T08:22:14;96835.00;;;20.10
8227;BMP180;4154;48.810;9.012;2022-08-19T08:25:07;96842.00;;;20.10
8227;BMP180;4154;48.810;9.012;2022-08-19T08:27:37;96837.00;;;20.00
8227;BMP180;4154;48.810;9.012;2022-08-19T08:30:08;96845.00;;;20.00
8227;BMP180;4154;48.810;9.012;2022-08-19T08:32:36;96843.00;;;20.00
8227;BMP180;4154;48.810;9.012;2022-08-19T08:35:08;96852.00;;;20.00
8227;BMP180;4154;48.810;9.012;2022-08-19T08:37:34;96836.00;;;20.10
8227;BMP180;4154;48.810;9.012;2022-08-19T08:40:07;96849.00;;;20.10
8227;BMP180;4154;48.810;9.012;2022-08-19T08:42:48;96857.00;;;20.10
8227;BMP180;4154;48.810;9.012;2022-08-19T08:45:18;96843.00;;;20.10
8227;BMP180;4154;48.810;9.012;2022-08-19T08:47:50;96841.00;;;20.10
8227;BMP180;4154;48.810;9.012;2022-08-19T08:50:39;96848.00;;;20.00
8227;BMP180;4154;48.810;9.012;2022-08-19T08:53:08;96850.00;;;20.00
8227;BMP180;4154;48.810;9.012;2022-08-19T08:55:36;96847.00;;;20.10
8227;BMP180;4154;48.810;9.012;2022-08-19T08:58:25;96846.00;;;20.10
8227;BMP180;4154;48.810;9.012;2022-08-19T09:00:52;96849.00;;;20.10
8227;BMP180;4154;48.810;9.012;2022-08-19T09:03:25;96848.00;;;20.10
8227;BMP180;4154;48.810;9.012;2022-08-19T09:06:04;96841.00;;;20.20
8227;BMP180;4154;48.810;9.012;2022-08-19T09:09:04;96845.00;;;20.20
8227;BMP180;4154;48.810;9.012;2022-08-19T09:17:09;96848.00;;;20.30
8227;BMP180;4154;48.810;9.012;2022-08-19T09:19:53;96855.00;;;20.40
8227;BMP180;4154;48.810;9.012;2022-08-19T09:22:20;96858.00;;;20.40
8227;BMP180;4154;48.810;9.012;2022-08-19T09:24:50;96856.00;;;20.40
8227;BMP180;4154;48.810;9.012;2022-08-19T09:27:18;96857.00;;;20.50
8227;BMP180;4154;48.810;9.012;2022-08-19T09:29:46;96865.00;;;20.40
8227;BMP180;4154;48.810;9.012;2022-08-19T09:32:14;96865.00;;;20.50
8227;BMP180;4154;48.810;9.012;2022-08-19T09:34:40;96868.00;;;20.50
8227;BMP180;4154;48.810;9.012;2022-08-19T09:37:07;96858.00;;;20.50
8227;BMP180;4154;48.810;9.012;2022-08-19T09:39:33;96869.00;;;20.60
8227;BMP180;4154;48.810;9.012;2022-08-19T09:41:59;96863.00;;;20.50
8227;BMP180;4154;48.810;9.012;2022-08-19T09:44:25;96867.00;;;20.60
8227;BMP180;4154;48.810;9.012;2022-08-19T09:46:51;96865.00;;;20.60
8227;BMP180;4154;48.810;9.012;2022-08-19T09:49:19;96867.00;;;20.60
8227;BMP180;4154;48.810;9.012;2022-08-19T09:51:51;96858.00;;;20.60
8227;BMP180;4154;48.810;9.012;2022-08-19T09:54:18;96872.00;;;20.70
8227;BMP180;4154;48.810;9.012;2022-08-19T09:56:45;96870.00;;;20.60
8227;BMP180;4154;48.810;9.012;2022-08-19T09:59:11;96867.00;;;20.70
8227;BMP180;4154;48.810;9.012;2022-08-19T10:01:38;96867.00;;;20.70
8227;BMP180;4154;48.810;9.012;2022-08-19T10:04:04;96865.00;;;20.70
8227;BMP180;4154;48.810;9.012;2022-08-19T10:06:37;96865.00;;;20.60
8227;BMP180;4154;48.810;9.012;2022-08-19T10:09:06;96873.00;;;20.70
8227;BMP180;4154;48.810;9.012;2022-08-19T10:11:34;96865.00;;;20.70
8227;BMP180;4154;48.810;9.012;2022-08-19T10:14:02;96863.00;;;20.70
8227;BMP180;4154;48.810;9.012;2022-08-19T10:16:28;96865.00;;;20.80
8227;BMP180;4154;48.810;9.012;2022-08-19T10:18:54;96873.00;;;20.80
8227;BMP180;4154;48.810;9.012;2022-08-19T10:21:26;96871.00;;;20.80
8227;BMP180;4154;48.810;9.012;2022-08-19T10:23:55;96863.00;;;20.80
8227;BMP180;4154;48.810;9.012;2022-08-19T10:26:29;96872.00;;;20.80
8227;BMP180;4154;48.810;9.012;2022-08-19T10:28:57;96862.00;;;20.80
8227;BMP180;4154;48.810;9.012;2022-08-19T10:31:28;96865.00;;;20.90
8227;BMP180;4154;48.810;9.012;2022-08-19T10:33:55;96868.00;;;20.90
8227;BMP180;4154;48.810;9.012;2022-08-19T10:36:32;96872.00;;;20.90
8227;BMP180;4154;48.810;9.012;2022-08-19T10:39:02;96861.00;;;21.00
8227;BMP180;4154;48.810;9.012;2022-08-19T10:41:32;96855.00;;;21.00
8227;BMP180;4154;48.810;9.012;2022-08-19T10:44:05;96856.00;;;21.00
8227;BMP180;4154;48.810;9.012;2022-08-19T10:46:35;96845.00;;;21.10
8227;BMP180;4154;48.810;9.012;2022-08-19T10:49:03;96835.00;;;21.10
8227;BMP180;4154;48.810;9.012;2022-08-19T10:51:31;96834.00;;;21.30
8227;BMP180;4154;48.810;9.012;2022-08-19T10:54:16;96835.00;;;21.40
8227;BMP180;4154;48.810;9.012;2022-08-19T10:56:43;96833.00;;;21.40
8227;BMP180;4154;48.810;9.012;2022-08-19T10:59:28;96829.00;;;21.40
8227;BMP180;4154;48.810;9.012;2022-08-19T11:02:00;96833.00;;;21.50
8227;BMP180;4154;48.810;9.012;2022-08-19T11:04:27;96835.00;;;21.50
8227;BMP180;4154;48.810;9.012;2022-08-19T11:06:53;96832.00;;;21.60
8227;BMP180;4154;48.810;9.012;2022-08-19T11:09:23;96844.00;;;21.60
8227;BMP180;4154;48.810;9.012;2022-08-19T11:11:51;96844.00;;;21.70
8227;BMP180;4154;48.810;9.012;2022-08-19T11:14:20;96839.00;;;21.70
8227;BMP180;4154;48.810;9.012;2022-08-19T11:16:48;96839.00;;;21.80
8227;BMP180;4154;48.810;9.012;2022-08-19T11:19:14;96837.00;;;21.80
8227;BMP180;4154;48.810;9.012;2022-08-19T11:21:47;96830.00;;;21.80
8227;BMP180;4154;48.810;9.012;2022-08-19T11:24:21;96830.00;;;21.90
8227;BMP180;4154;48.810;9.012;2022-08-19T11:26:51;96825.00;;;21.90
8227;BMP180;4154;48.810;9.012;2022-08-19T11:29:21;96831.00;;;21.90
8227;BMP180;4154;48.810;9.012;2022-08-19T11:31:49;96828.00;;;22.00
8227;BMP180;4154;48.810;9.012;2022-08-19T11:34:23;96831.00;;;22.00
8227;BMP180;4154;48.810;9.012;2022-08-19T11:36:50;96831.00;;;22.00
8227;BMP180;4154;48.810;9.012;2022-08-19T11:39:20;96834.00;;;22.00
8227;BMP180;4154;48.810;9.012;2022-08-19T11:41:46;96843.00;;;22.00
8227;BMP180;4154;48.810;9.012;2022-08-19T11:44:12;96838.00;;;22.10
8227;BMP180;4154;48.810;9.012;2022-08-19T11:46:41;96834.00;;;22.00
8227;BMP180;4154;48.810;9.012;2022-08-19T11:49:07;96829.00;;;22.10
8227;BMP180;4154;48.810;9.012;2022-08-19T11:51:35;96823.00;;;22.10
8227;BMP180;4154;48.810;9.012;2022-08-19T11:54:01;96829.00;;;22.30
8227;BMP180;4154;48.810;9.012;2022-08-19T11:56:28;96826.00;;;22.30
8227;BMP180;4154;48.810;9.012;2022-08-19T11:58:54;96819.00;;;22.40
8227;BMP180;4154;48.810;9.012;2022-08-19T12:01:25;96826.00;;;22.40
8227;BMP180;4154;48.810;9.012;2022-08-19T12:03:53;96821.00;;;22.40
8227;BMP180;4154;48.810;9.012;2022-08-19T12:06:32;96822.00;;;22.40
8227;BMP180;4154;48.810;9.012;2022-08-19T12:09:03;96821.00;;;22.40
8227;BMP180;4154;48.810;9.012;2022-08-19T12:11:30;96831.00;;;22.40
8227;BMP180;4154;48.810;9.012;2022-08-19T12:13:57;96830.00;;;22.40
8227;BMP180;4154;48.810;9.012;2022-08-19T12:16:28;96817.00;;;22.40
8227;BMP180;4154;48.810;9.012;2022-08-19T12:18:55;96820.00;;;22.40
8227;BMP180;4154;48.810;9.012;2022-08-19T12:21:25;96810.00;;;22.50
8227;BMP180;4154;48.810;9.012;2022-08-19T12:23:56;96815.00;;;22.50
8227;BMP180;4154;48.810;9.012;2022-08-19T12:26:23;96806.00;;;22.60
8227;BMP180;4154;48.810;9.012;2022-08-19T12:28:49;96807.00;;;22.60
8227;BMP180;4154;48.810;9.012;2022-08-19T12:31:16;96811.00;;;22.60
8227;BMP180;4154;48.810;9.012;2022-08-19T12:33:43;96806.00;;;22.60
8227;BMP180;4154;48.810;9.012;2022-08-19T12:36:11;96812.00;;;22.70
8227;BMP180;4154;48.810;9.012;2022-08-19T12:38:38;96811.00;;;22.70
8227;BMP180;4154;48.810;9.012;2022-08-19T12:41:06;96807.00;;;22.70
8227;BMP180;4154;48.810;9.012;2022-08-19T12:43:36;96807.00;;;22.70
8227;BMP180;4154;48.810;9.012;2022-08-19T12:46:05;96821.00;;;22.70
8227;BMP180;4154;48.810;9.012;2022-08-19T12:48:33;96812.00;;;22.80
8227;BMP180;4154;48.810;9.012;2022-08-19T12:50:59;96810.00;;;22.80
8227;BMP180;4154;48.810;9.012;2022-08-19T12:53:25;96814.00;;;23.00
8227;BMP180;4154;48.810;9.012;2022-08-19T12:55:56;96813.00;;;23.00
8227;BMP180;4154;48.810;9.012;2022-08-19T12:58:23;96801.00;;;23.10
8227;BMP180;4154;48.810;9.012;2022-08-19T13:00:49;96815.00;;;23.10
8227;BMP180;4154;48.810;9.012;2022-08-19T13:03:14;96819.00;;;23.20
8227;BMP180;4154;48.810;9.012;2022-08-19T13:05:41;96817.00;;;23.30
8227;BMP180;4154;48.810;9.012;2022-08-19T13:08:07;96823.00;;;23.30
8227;BMP180;4154;48.810;9.012;2022-08-19T13:10:35;96816.00;;;23.30
8227;BMP180;4154;48.810;9.012;2022-08-19T13:13:05;96820.00;;;23.30
8227;BMP180;4154;48.810;9.012;2022-08-19T13:15:39;96829.00;;;23.30
8227;BMP180;4154;48.810;9.012;2022-08-19T13:18:07;96823.00;;;23.30
8227;BMP180;4154;48.810;9.012;2022-08-19T13:20:36;96819.00;;;23.30
8227;BMP180;4154;48.810;9.012;2022-08-19T13:23:04;96819.00;;;23.30
8227;BMP180;4154;48.810;9.012;2022-08-19T13:25:30;96819.00;;;23.40
8227;BMP180;4154;48.810;9.012;2022-08-19T13:27:57;96820.00;;;23.60
8227;BMP180;4154;48.810;9.012;2022-08-19T13:30:23;96824.00;;;23.50
8227;BMP180;4154;48.810;9.012;2022-08-19T13:33:09;96813.00;;;23.60
8227;BMP180;4154;48.810;9.012;2022-08-19T13:35:58;96821.00;;;23.50
8227;BMP180;4154;48.810;9.012;2022-08-19T13:38:27;96823.00;;;23.50
8227;BMP180;4154;48.810;9.012;2022-08-19T13:40:54;96827.00;;;23.50
8227;BMP180;4154;48.810;9.012;2022-08-19T13:43:25;96824.00;;;23.50
8227;BMP180;4154;48.810;9.012;2022-08-19T13:45:54;96824.00;;;23.50
8227;BMP180;4154;48.810;9.012;2022-08-19T13:48:22;96826.00;;;23.60
8227;BMP180;4154;48.810;9.012;2022-08-19T13:50:49;96820.00;;;23.60
8227;BMP180;4154;48.810;9.012;2022-08-19T13:53:17;96819.00;;;23.60
8227;BMP180;4154;48.810;9.012;2022-08-19T13:55:43;96832.00;;;23.60
8227;BMP180;4154;48.810;9.012;2022-08-19T13:58:11;96826.00;;;23.70
8227;BMP180;4154;48.810;9.012;2022-08-19T14:00:41;96823.00;;;23.70
8227;BMP180;4154;48.810;9.012;2022-08-19T14:03:08;96833.00;;;23.70
8227;BMP180;4154;48.810;9.012;2022-08-19T14:05:35;96832.00;;;23.70
8227;BMP180;4154;48.810;9.012;2022-08-19T14:08:02;96837.00;;;23.80
8227;BMP180;4154;48.810;9.012;2022-08-19T14:10:28;96828.00;;;23.80
8227;BMP180;4154;48.810;9.012;2022-08-19T14:13:00;96842.00;;;23.80
8227;BMP180;4154;48.810;9.012;2022-08-19T14:15:27;96833.00;;;23.80
8227;BMP180;4154;48.810;9.012;2022-08-19T14:17:53;96834.00;;;23.80
8227;BMP180;4154;48.810;9.012;2022-08-19T14:20:20;96835.00;;;23.80
8227;BMP180;4154;48.810;9.012;2022-08-19T14:22:48;96836.00;;;23.80
8227;BMP180;4154;48.810;9.012;2022-08-19T14:25:23;96829.00;;;23.80
8227;BMP180;4154;48.810;9.012;2022-08-19T14:27:50;96837.00;;;23.90
8227;BMP180;4154;48.810;9.012;2022-08-19T14:30:20;96838.00;;;23.90
8227;BMP180;4154;48.810;9.012;2022-08-19T14:32:47;96839.00;;;24.00
8227;BMP180;4154;48.810;9.012;2022-08-19T14:35:15;96832.00;;;24.00
8227;BMP180;4154;48.810;9.012;2022-08-19T14:37:43;96829.00;;;24.10
8227;BMP180;4154;48.810;9.012;2022-08-19T14:40:11;96835.00;;;24.10
8227;BMP180;4154;48.810;9.012;2022-08-19T14:42:38;96826.00;;;24.10
8227;BMP180;4154;48.810;9.012;2022-08-19T14:45:05;96829.00;;;24.10
8227;BMP180;4154;48.810;9.012;2022-08-19T14:47:31;96830.00;;;24.10
8227;BMP180;4154;48.810;9.012;2022-08-19T14:49:57;96827.00;;;24.10
8227;BMP180;4154;48.810;9.012;2022-08-19T14:52:23;96832.00;;;24.10
8227;BMP180;4154;48.810;9.012;2022-08-19T14:54:49;96820.00;;;24.10